Time;durP1;ratioP1;P1;durP2;ratioP2;P2;SDS_P1;SDS_P2;PMS_P1;PMS_P2;Temp;Humidity;BMP_temperature;BMP_pressure;BME280_temperature;BME280_humidity;BME280_pressure;Samples;Min_cycle;Max_cycle;Signal;HPM_P1;HPM_P2
2024/03/22 00:02:16;;;;;;;57.25;32.80;;;;;;;;;;5050075;28;20204;-72
2024/03/22 00:04:41;;;;;;;57.38;33.58;;;;;;;;;;5051136;28;20552;-72
2024/03/22 00:07:06;;;;;;;55.08;33.88;;;;;;;;;;5053392;28;20187;-72
2024/03/22 00:09:32;;;;;;;56.35;32.83;;;;;;;;;;5055399;28;20215;-72
2024/03/22 00:11:57;;;;;;;60.15;32.42;;;;;;;;;;5055491;28;20189;-73
2024/03/22 00:14:23;;;;;;;62.38;34.97;;;;;;;;;;5053839;28;20196;-72
2024/03/22 00:16:48;;;;;;;60.35;34.45;;;;;;;;;;5052051;28;20209;-72
2024/03/22 00:19:14;;;;;;;60.22;34.90;;;;;;;;;;5053180;28;20556;-73
2024/03/22 00:21:39;;;;;;;62.22;32.83;;;;;;;;;;5051900;28;20204;-73
2024/03/22 00:24:05;;;;;;;57.83;32.97;;;;;;;;;;5051625;28;20247;-72
2024/03/22 00:26:30;;;;;;;56.97;33.60;;;;;;;;;;5051726;28;20212;-72
2024/03/22 00:28:58;;;;;;;57.83;32.65;;;;;;;;;;5053805;28;20850;-72
2024/03/22 00:31:24;;;;;;;56.60;33.17;;;;;;;;;;5053163;28;20337;-72
2024/03/22 00:33:49;;;;;;;57.72;32.72;;;;;;;;;;5050115;28;20204;-72
2024/03/22 00:36:15;;;;;;;56.95;32.88;;;;;;;;;;5046930;28;20870;-72
2024/03/22 00:38:40;;;;;;;57.25;32.72;;;;;;;;;;5052551;28;20204;-72
2024/03/22 00:41:06;;;;;;;56.45;33.38;;;;;;;;;;5054105;28;20190;-72
2024/03/22 00:43:31;;;;;;;56.75;33.28;;;;;;;;;;5055637;28;20212;-73
2024/03/22 00:45:58;;;;;;;53.55;32.08;;;;;;;;;;5051725;28;20662;-73
2024/03/22 00:48:23;;;;;;;59.85;32.92;;;;;;;;;;5052903;28;20178;-73
2024/03/22 00:50:49;;;;;;;58.85;32.63;;;;;;;;;;5055012;28;20662;-73
2024/03/22 00:53:14;;;;;;;55.50;31.33;;;;;;;;;;5058663;28;20217;-73
2024/03/22 00:55:40;;;;;;;58.75;33.58;;;;;;;;;;5052586;28;20611;-73
2024/03/22 00:58:05;;;;;;;57.75;30.98;;;;;;;;;;5030580;28;20212;-73
2024/03/22 01:00:31;;;;;;;57.83;33.42;;;;;;;;;;5057760;28;20527;-73
2024/03/22 01:02:56;;;;;;;55.33;32.10;;;;;;;;;;5056505;28;20506;-73
2024/03/22 01:05:22;;;;;;;57.33;32.25;;;;;;;;;;5052692;28;20200;-73
2024/03/22 01:07:47;;;;;;;54.55;31.02;;;;;;;;;;5058159;28;20207;-73
2024/03/22 01:10:13;;;;;;;59.97;33.22;;;;;;;;;;5057328;28;20192;-73
2024/03/22 01:12:39;;;;;;;56.00;31.27;;;;;;;;;;5052938;28;20181;-73
2024/03/22 01:15:06;;;;;;;60.67;32.20;;;;;;;;;;5059688;28;20212;-73
2024/03/22 01:17:31;;;;;;;56.40;32.45;;;;;;;;;;5053898;28;20224;-73
2024/03/22 01:19:57;;;;;;;61.30;34.10;;;;;;;;;;5047396;28;20224;-73
2024/03/22 01:22:23;;;;;;;63.60;34.55;;;;;;;;;;5052175;28;20194;-72
2024/03/22 01:24:48;;;;;;;60.33;32.20;;;;;;;;;;5055365;28;20185;-72
2024/03/22 01:27:14;;;;;;;64.10;33.55;;;;;;;;;;5054439;28;20762;-73
2024/03/22 01:29:39;;;;;;;63.88;34.35;;;;;;;;;;5049436;28;20347;-72
2024/03/22 01:32:05;;;;;;;59.83;33.72;;;;;;;;;;5050953;28;20185;-73
2024/03/22 01:34:30;;;;;;;60.80;33.30;;;;;;;;;;5051733;28;20212;-72
2024/03/22 01:36:56;;;;;;;62.63;32.80;;;;;;;;;;5056574;28;20225;-72
2024/03/22 01:39:22;;;;;;;61.80;32.75;;;;;;;;;;5053063;28;20223;-72
2024/03/22 01:41:48;;;;;;;63.55;34.00;;;;;;;;;;5052725;28;20200;-72
2024/03/22 01:44:13;;;;;;;59.42;33.30;;;;;;;;;;5059459;28;20200;-73
2024/03/22 01:46:40;;;;;;;61.92;33.97;;;;;;;;;;5055376;28;20193;-73
2024/03/22 01:49:06;;;;;;;59.70;31.35;;;;;;;;;;5052511;28;20189;-73
2024/03/22 01:51:31;;;;;;;62.90;34.20;;;;;;;;;;5057105;28;20691;-73
2024/03/22 01:54:01;;;;;;;64.85;33.78;;;;;;;;;;5054000;28;20202;-73
2024/03/22 01:56:26;;;;;;;68.47;31.88;;;;;;;;;;5043869;28;20525;-72
2024/03/22 01:58:52;;;;;;;61.08;31.05;;;;;;;;;;5053481;28;20211;-72
2024/03/22 02:01:18;;;;;;;61.78;33.05;;;;;;;;;;5055752;28;20691;-73
2024/03/22 02:03:43;;;;;;;62.88;33.38;;;;;;;;;;5060372;28;20192;-73
2024/03/22 02:06:09;;;;;;;64.93;33.65;;;;;;;;;;5055840;28;20200;-73
2024/03/22 02:08:35;;;;;;;63.40;32.30;;;;;;;;;;5060034;28;20291;-73
2024/03/22 02:11:01;;;;;;;63.33;33.05;;;;;;;;;;5051620;28;20268;-73
2024/03/22 02:13:26;;;;;;;66.60;33.33;;;;;;;;;;5054114;28;20189;-73
2024/03/22 02:15:52;;;;;;;64.15;33.10;;;;;;;;;;5051773;28;20247;-73
2024/03/22 02:18:17;;;;;;;64.75;33.53;;;;;;;;;;5058409;28;20205;-72
2024/03/22 02:20:43;;;;;;;66.93;33.70;;;;;;;;;;5057436;28;20308;-72
2024/03/22 02:23:08;;;;;;;72.60;35.58;;;;;;;;;;5054081;28;20189;-72
2024/03/22 02:25:34;;;;;;;65.13;34.60;;;;;;;;;;5059303;28;20204;-73
2024/03/22 02:27:59;;;;;;;68.55;34.25;;;;;;;;;;5059148;28;20603;-73
2024/03/22 02:30:24;;;;;;;69.82;34.55;;;;;;;;;;5060672;28;20199;-73
2024/03/22 02:32:50;;;;;;;67.22;34.55;;;;;;;;;;5056626;28;20193;-73
2024/03/22 02:35:15;;;;;;;71.70;34.53;;;;;;;;;;5051437;28;20189;-73
2024/03/22 02:37:41;;;;;;;67.03;32.92;;;;;;;;;;5053643;28;20699;-72
2024/03/22 02:40:07;;;;;;;67.90;34.08;;;;;;;;;;5055001;28;20675;-72
2024/03/22 02:42:32;;;;;;;67.38;33.67;;;;;;;;;;5050445;28;20254;-72
2024/03/22 02:44:57;;;;;;;69.38;34.53;;;;;;;;;;5053926;28;20188;-72
2024/03/22 02:47:23;;;;;;;64.75;34.92;;;;;;;;;;5055122;28;20181;-72
2024/03/22 02:49:48;;;;;;;75.70;36.33;;;;;;;;;;5055069;28;20185;-72
2024/03/22 02:52:14;;;;;;;71.85;34.58;;;;;;;;;;5046923;28;20206;-72
2024/03/22 02:54:39;;;;;;;68.40;33.58;;;;;;;;;;5056397;28;20185;-72
2024/03/22 02:57:04;;;;;;;68.65;34.90;;;;;;;;;;5053815;28;20248;-72
2024/03/22 02:59:30;;;;;;;71.15;34.95;;;;;;;;;;5052477;28;20207;-72
2024/03/22 03:01:55;;;;;;;69.25;34.13;;;;;;;;;;5051566;28;20679;-72
2024/03/22 03:04:21;;;;;;;70.70;34.58;;;;;;;;;;5051843;28;20219;-72
2024/03/22 03:06:46;;;;;;;69.57;34.67;;;;;;;;;;5054421;28;20512;-72
2024/03/22 03:09:12;;;;;;;72.85;35.10;;;;;;;;;;5053496;28;20235;-72
2024/03/22 03:11:40;;;;;;;71.18;35.78;;;;;;;;;;5057205;28;20199;-72
2024/03/22 03:14:06;;;;;;;73.75;34.95;;;;;;;;;;5052898;28;20192;-72
2024/03/22 03:16:31;;;;;;;74.47;35.85;;;;;;;;;;5052237;28;20220;-72
2024/03/22 03:18:57;;;;;;;67.13;35.05;;;;;;;;;;5051227;28;20197;-72
2024/03/22 03:21:23;;;;;;;72.13;35.88;;;;;;;;;;5061175;28;20867;-72
2024/03/22 03:23:48;;;;;;;75.43;36.38;;;;;;;;;;5051365;28;20201;-72
2024/03/22 03:26:13;;;;;;;69.00;35.47;;;;;;;;;;5060476;28;20184;-73
2024/03/22 03:28:39;;;;;;;74.45;36.10;;;;;;;;;;5056304;28;20323;-72
2024/03/22 03:31:04;;;;;;;76.97;36.13;;;;;;;;;;5054011;28;20273;-72
2024/03/22 03:33:30;;;;;;;71.00;36.15;;;;;;;;;;5056769;28;20567;-72
2024/03/22 03:35:56;;;;;;;72.88;36.45;;;;;;;;;;5058363;28;20357;-72
2024/03/22 03:38:22;;;;;;;73.07;35.60;;;;;;;;;;5053915;28;20189;-72
2024/03/22 03:40:47;;;;;;;71.22;35.90;;;;;;;;;;5054276;28;20181;-72
2024/03/22 03:43:13;;;;;;;67.65;34.70;;;;;;;;;;5056625;28;20211;-72
2024/03/22 03:45:38;;;;;;;74.70;37.45;;;;;;;;;;5055704;28;20174;-72
2024/03/22 03:48:04;;;;;;;65.07;35.65;;;;;;;;;;5054382;28;20242;-72
2024/03/22 03:50:29;;;;;;;68.63;34.60;;;;;;;;;;5053062;28;20653;-72
2024/03/22 03:52:55;;;;;;;66.88;34.50;;;;;;;;;;5055490;28;20257;-72
2024/03/22 03:55:22;;;;;;;74.35;35.38;;;;;;;;;;5052975;28;20226;-73
2024/03/22 03:57:50;;;;;;;74.35;37.10;;;;;;;;;;5050456;28;20232;-73
2024/03/22 04:00:15;;;;;;;75.93;35.90;;;;;;;;;;5048864;28;20659;-72
2024/03/22 04:02:41;;;;;;;68.55;35.63;;;;;;;;;;5053066;28;20180;-73
2024/03/22 04:05:07;;;;;;;76.68;36.95;;;;;;;;;;5055431;28;20189;-73
2024/03/22 04:07:32;;;;;;;72.07;37.38;;;;;;;;;;5055637;28;20177;-73
2024/03/22 04:10:00;;;;;;;74.78;36.58;;;;;;;;;;5058858;28;20319;-72
2024/03/22 04:12:25;;;;;;;70.85;35.90;;;;;;;;;;5050020;28;20272;-73
2024/03/22 04:14:51;;;;;;;70.95;37.78;;;;;;;;;;5053520;28;20695;-73
2024/03/22 04:17:16;;;;;;;75.93;37.85;;;;;;;;;;5053002;28;21427;-73
2024/03/22 04:19:42;;;;;;;73.43;36.63;;;;;;;;;;5055215;28;20626;-73
2024/03/22 04:22:07;;;;;;;75.65;36.60;;;;;;;;;;5047293;28;20242;-73
2024/03/22 04:24:32;;;;;;;70.70;36.40;;;;;;;;;;5052983;28;20786;-73
2024/03/22 04:26:58;;;;;;;72.55;37.80;;;;;;;;;;5052151;28;20200;-72
2024/03/22 04:29:23;;;;;;;72.03;36.33;;;;;;;;;;5051095;28;20202;-73
2024/03/22 04:31:49;;;;;;;76.90;38.47;;;;;;;;;;5051728;28;20185;-73
2024/03/22 04:34:14;;;;;;;69.55;35.78;;;;;;;;;;5052679;28;20235;-72
2024/03/22 04:36:39;;;;;;;74.03;37.22;;;;;;;;;;5052351;28;20309;-72
2024/03/22 04:39:05;;;;;;;73.20;37.20;;;;;;;;;;5050462;28;20191;-73
2024/03/22 04:41:32;;;;;;;73.05;35.83;;;;;;;;;;5052607;28;20313;-73
2024/03/22 04:43:58;;;;;;;73.50;37.67;;;;;;;;;;5055597;28;20209;-74
2024/03/22 04:46:23;;;;;;;74.00;38.28;;;;;;;;;;5054354;28;20194;-73
2024/03/22 04:48:49;;;;;;;73.45;36.33;;;;;;;;;;5056006;28;20624;-72
2024/03/22 04:51:15;;;;;;;74.93;37.95;;;;;;;;;;5030172;28;20612;-73
2024/03/22 04:53:41;;;;;;;73.00;37.58;;;;;;;;;;5052277;28;20192;-73
2024/03/22 04:56:07;;;;;;;68.93;36.92;;;;;;;;;;5054475;28;20205;-73
2024/03/22 04:58:32;;;;;;;73.30;38.25;;;;;;;;;;5057677;28;20240;-73
2024/03/22 05:00:58;;;;;;;77.00;38.53;;;;;;;;;;5056366;28;20574;-72
2024/03/22 05:03:24;;;;;;;79.05;38.83;;;;;;;;;;5056689;28;20184;-73
2024/03/22 05:05:50;;;;;;;74.25;38.60;;;;;;;;;;5053414;28;20599;-73
2024/03/22 05:08:16;;;;;;;78.35;38.33;;;;;;;;;;5055805;28;20697;-72
2024/03/22 05:10:42;;;;;;;72.80;38.67;;;;;;;;;;5058183;28;20197;-73
2024/03/22 05:13:07;;;;;;;69.88;38.20;;;;;;;;;;5052533;28;20276;-73
2024/03/22 05:15:33;;;;;;;68.93;37.88;;;;;;;;;;5056748;28;20275;-73
2024/03/22 05:17:59;;;;;;;71.78;38.45;;;;;;;;;;5054657;28;20224;-73
2024/03/22 05:20:24;;;;;;;70.63;37.55;;;;;;;;;;5064939;28;20202;-73
2024/03/22 05:22:50;;;;;;;68.07;38.63;;;;;;;;;;5062025;28;20200;-73
2024/03/22 05:25:15;;;;;;;72.85;39.90;;;;;;;;;;5059722;28;20398;-73
2024/03/22 05:27:42;;;;;;;71.15;39.28;;;;;;;;;;5057559;28;20199;-73
2024/03/22 05:30:11;;;;;;;68.63;36.63;;;;;;;;;;5055388;28;20203;-73
2024/03/22 05:32:38;;;;;;;70.80;40.25;;;;;;;;;;5057159;28;20508;-72
2024/03/22 05:35:04;;;;;;;70.85;38.38;;;;;;;;;;5059394;28;21991;-73
2024/03/22 05:37:29;;;;;;;68.45;38.88;;;;;;;;;;5058807;28;20341;-72
2024/03/22 05:39:55;;;;;;;64.50;37.63;;;;;;;;;;5051017;28;20668;-73
2024/03/22 05:42:20;;;;;;;74.25;40.20;;;;;;;;;;5055042;28;20189;-73
2024/03/22 05:44:45;;;;;;;68.68;38.38;;;;;;;;;;5057319;28;20223;-72
2024/03/22 05:47:11;;;;;;;67.30;38.75;;;;;;;;;;5052943;28;20275;-73
2024/03/22 05:49:36;;;;;;;68.47;37.88;;;;;;;;;;5060508;28;20217;-72
2024/03/22 05:52:02;;;;;;;70.43;36.63;;;;;;;;;;5054273;28;20193;-72
2024/03/22 05:54:27;;;;;;;66.18;36.65;;;;;;;;;;5061438;28;20200;-72
2024/03/22 05:56:53;;;;;;;68.50;36.75;;;;;;;;;;5050896;28;20205;-72
2024/03/22 05:59:18;;;;;;;65.15;36.95;;;;;;;;;;5060723;28;20193;-72
2024/03/22 06:01:44;;;;;;;58.70;34.75;;;;;;;;;;5055649;28;20192;-72
2024/03/22 06:04:09;;;;;;;64.38;35.58;;;;;;;;;;5059222;28;20259;-72
2024/03/22 06:06:35;;;;;;;59.88;34.28;;;;;;;;;;5053447;28;20193;-72
2024/03/22 06:09:03;;;;;;;61.83;35.33;;;;;;;;;;5052301;28;20685;-72
2024/03/22 06:11:30;;;;;;;60.08;34.25;;;;;;;;;;5057602;28;20690;-72
2024/03/22 06:13:55;;;;;;;60.38;34.55;;;;;;;;;;5054438;28;20185;-73
2024/03/22 06:16:21;;;;;;;61.55;35.17;;;;;;;;;;5055409;28;20715;-72
2024/03/22 06:18:48;;;;;;;62.28;34.15;;;;;;;;;;5055742;28;20216;-72
2024/03/22 06:21:14;;;;;;;60.05;33.90;;;;;;;;;;5044964;28;20328;-72
2024/03/22 06:23:40;;;;;;;62.85;33.20;;;;;;;;;;5050983;28;20181;-72
2024/03/22 06:26:05;;;;;;;53.75;31.60;;;;;;;;;;5051295;28;20203;-72
2024/03/22 06:28:30;;;;;;;60.78;33.33;;;;;;;;;;5054622;28;20201;-72
2024/03/22 06:30:56;;;;;;;60.90;33.83;;;;;;;;;;5061970;28;20185;-72
2024/03/22 06:33:21;;;;;;;58.00;33.22;;;;;;;;;;5062526;28;20197;-72
2024/03/22 06:35:47;;;;;;;59.40;32.53;;;;;;;;;;5051654;28;20317;-72
2024/03/22 06:38:13;;;;;;;53.38;32.60;;;;;;;;;;5056451;28;20240;-72
2024/03/22 06:40:38;;;;;;;61.75;33.58;;;;;;;;;;5059574;28;20189;-72
2024/03/22 06:43:04;;;;;;;56.00;32.90;;;;;;;;;;5059966;28;20871;-72
2024/03/22 06:45:29;;;;;;;61.40;33.20;;;;;;;;;;5038607;28;20302;-72
2024/03/22 06:47:55;;;;;;;55.33;32.45;;;;;;;;;;5060721;28;20450;-73
2024/03/22 06:50:24;;;;;;;59.92;32.30;;;;;;;;;;5058153;28;20230;-72
2024/03/22 06:52:53;;;;;;;62.03;33.75;;;;;;;;;;5057514;28;20188;-72
2024/03/22 06:55:19;;;;;;;55.20;32.42;;;;;;;;;;5052333;28;20195;-72
2024/03/22 06:57:49;;;;;;;59.30;31.95;;;;;;;;;;5057702;28;20208;-72
2024/03/22 07:00:16;;;;;;;58.97;33.60;;;;;;;;;;5055583;28;20207;-72
2024/03/22 07:02:41;;;;;;;61.45;32.95;;;;;;;;;;5055722;28;20185;-71
2024/03/22 07:05:08;;;;;;;58.35;32.58;;;;;;;;;;5055921;28;20187;-72
2024/03/22 07:07:34;;;;;;;59.42;33.22;;;;;;;;;;5050835;28;20204;-73
2024/03/22 07:10:00;;;;;;;57.42;31.98;;;;;;;;;;5050845;28;20194;-72
2024/03/22 07:12:25;;;;;;;58.80;32.83;;;;;;;;;;5039744;28;20192;-72
2024/03/22 07:14:51;;;;;;;52.95;31.23;;;;;;;;;;5057537;28;20207;-72
2024/03/22 07:17:16;;;;;;;57.25;31.42;;;;;;;;;;5053662;28;20680;-72
2024/03/22 07:19:42;;;;;;;58.08;32.65;;;;;;;;;;5051554;28;20965;-72
2024/03/22 07:22:08;;;;;;;58.38;32.80;;;;;;;;;;5056475;28;20641;-72
2024/03/22 07:24:33;;;;;;;54.00;32.38;;;;;;;;;;5053782;28;20200;-73
2024/03/22 07:26:59;;;;;;;54.83;31.80;;;;;;;;;;5036800;28;20204;-72
2024/03/22 07:29:24;;;;;;;57.10;31.65;;;;;;;;;;5053884;28;20701;-73
2024/03/22 07:31:50;;;;;;;52.45;31.80;;;;;;;;;;5052077;28;20235;-73
2024/03/22 07:34:15;;;;;;;51.17;30.90;;;;;;;;;;5043289;28;20560;-73
2024/03/22 07:36:41;;;;;;;53.47;32.55;;;;;;;;;;5054791;28;20336;-73
2024/03/22 07:39:07;;;;;;;57.30;31.45;;;;;;;;;;5053376;28;20567;-73
2024/03/22 07:41:33;;;;;;;52.65;30.92;;;;;;;;;;5061279;28;20192;-73
2024/03/22 07:44:00;;;;;;;54.45;31.65;;;;;;;;;;5058359;28;20280;-72
2024/03/22 07:46:26;;;;;;;49.20;28.98;;;;;;;;;;5057010;28;20229;-72
2024/03/22 07:48:51;;;;;;;55.50;30.70;;;;;;;;;;5056527;28;20281;-73
2024/03/22 07:51:17;;;;;;;55.70;32.08;;;;;;;;;;5050652;28;20555;-73
2024/03/22 07:53:42;;;;;;;57.80;32.28;;;;;;;;;;5055971;28;20960;-73
2024/03/22 07:56:07;;;;;;;52.80;30.58;;;;;;;;;;5052400;28;20212;-73
2024/03/22 07:58:33;;;;;;;55.10;31.27;;;;;;;;;;5053197;28;20635;-73
2024/03/22 08:00:59;;;;;;;54.58;30.98;;;;;;;;;;5052523;28;20279;-73
2024/03/22 08:03:24;;;;;;;51.05;30.48;;;;;;;;;;5049002;28;20205;-73
2024/03/22 08:05:49;;;;;;;46.95;29.23;;;;;;;;;;5055590;28;20184;-73
2024/03/22 08:08:15;;;;;;;48.35;29.08;;;;;;;;;;5053693;28;20747;-71
2024/03/22 08:10:40;;;;;;;50.92;29.67;;;;;;;;;;5053098;28;20219;-72
2024/03/22 08:13:06;;;;;;;49.58;29.20;;;;;;;;;;5056936;28;20338;-72
2024/03/22 08:15:31;;;;;;;50.80;29.40;;;;;;;;;;5047165;28;20193;-72
2024/03/22 08:17:59;;;;;;;49.30;28.25;;;;;;;;;;5062326;28;20687;-73
2024/03/22 08:20:25;;;;;;;50.40;30.15;;;;;;;;;;5054452;28;20351;-73
2024/03/22 08:22:50;;;;;;;48.67;29.48;;;;;;;;;;5048445;28;20295;-72
2024/03/22 08:25:17;;;;;;;48.38;29.45;;;;;;;;;;5055293;28;20216;-73
2024/03/22 08:27:46;;;;;;;50.60;28.40;;;;;;;;;;5050164;28;20261;-71
2024/03/22 08:30:12;;;;;;;47.88;28.90;;;;;;;;;;5047731;28;20189;-73
2024/03/22 08:32:38;;;;;;;52.70;29.85;;;;;;;;;;5055118;28;20197;-72
2024/03/22 08:35:04;;;;;;;48.15;28.00;;;;;;;;;;5054091;28;20312;-72
2024/03/22 08:37:30;;;;;;;50.28;29.48;;;;;;;;;;5054148;28;20323;-72
2024/03/22 08:39:55;;;;;;;48.38;27.85;;;;;;;;;;5059989;28;20652;-72
2024/03/22 08:42:21;;;;;;;46.13;27.65;;;;;;;;;;5056401;28;20190;-73
2024/03/22 08:44:46;;;;;;;49.90;28.17;;;;;;;;;;5052192;28;20208;-72
2024/03/22 08:47:12;;;;;;;48.97;28.48;;;;;;;;;;5045318;28;20193;-72
2024/03/22 08:49:37;;;;;;;46.58;28.05;;;;;;;;;;5053716;28;20188;-73
2024/03/22 08:52:02;;;;;;;42.83;27.30;;;;;;;;;;5051358;28;20247;-73
2024/03/22 08:54:28;;;;;;;45.83;26.58;;;;;;;;;;5053522;28;20611;-73
2024/03/22 08:56:53;;;;;;;48.22;27.05;;;;;;;;;;5052940;28;20208;-74
2024/03/22 08:59:19;;;;;;;44.13;27.05;;;;;;;;;;5059675;28;20555;-73
2024/03/22 09:01:44;;;;;;;43.13;26.52;;;;;;;;;;5064682;28;20225;-73
2024/03/22 09:04:10;;;;;;;39.88;24.77;;;;;;;;;;5054337;28;20559;-73
2024/03/22 09:06:35;;;;;;;43.85;25.42;;;;;;;;;;5056954;28;20301;-72
2024/03/22 09:09:01;;;;;;;44.78;25.60;;;;;;;;;;5056133;28;20235;-72
2024/03/22 09:11:26;;;;;;;45.90;25.13;;;;;;;;;;5056410;28;20197;-72
2024/03/22 09:13:55;;;;;;;41.28;25.27;;;;;;;;;;5053602;28;20197;-72
2024/03/22 09:16:20;;;;;;;43.20;24.55;;;;;;;;;;5056779;28;20185;-72
2024/03/22 09:18:46;;;;;;;41.35;23.95;;;;;;;;;;5064387;28;20214;-72
2024/03/22 09:21:11;;;;;;;42.65;24.17;;;;;;;;;;5054956;28;20220;-73
2024/03/22 09:23:37;;;;;;;42.60;23.40;;;;;;;;;;5063049;28;20660;-73
2024/03/22 09:26:02;;;;;;;38.83;23.10;;;;;;;;;;5056518;28;20565;-73
2024/03/22 09:28:27;;;;;;;37.03;22.40;;;;;;;;;;5057405;28;20716;-73
2024/03/22 09:30:53;;;;;;;32.50;21.65;;;;;;;;;;5059208;28;20197;-73
2024/03/22 09:33:19;;;;;;;42.38;22.73;;;;;;;;;;5056496;28;20184;-73
2024/03/22 09:35:44;;;;;;;35.22;21.90;;;;;;;;;;5047684;28;20216;-72
2024/03/22 09:38:09;;;;;;;39.67;21.92;;;;;;;;;;5057559;28;20288;-72
2024/03/22 09:40:39;;;;;;;38.58;22.55;;;;;;;;;;5055929;28;20228;-72
2024/03/22 09:43:06;;;;;;;44.40;22.75;;;;;;;;;;5057793;28;20587;-71
2024/03/22 09:45:32;;;;;;;42.17;24.17;;;;;;;;;;5060810;28;20189;-72
2024/03/22 09:47:58;;;;;;;41.90;23.15;;;;;;;;;;5054836;28;20187;-72
2024/03/22 09:50:23;;;;;;;35.22;22.83;;;;;;;;;;5058664;28;20188;-72
2024/03/22 09:52:52;;;;;;;42.05;22.83;;;;;;;;;;5057891;28;20264;-72
2024/03/22 09:55:23;;;;;;;43.70;23.67;;;;;;;;;;5058802;28;20190;-72
2024/03/22 09:57:50;;;;;;;44.13;23.88;;;;;;;;;;5054613;28;20205;-72
2024/03/22 10:00:18;;;;;;;45.67;23.75;;;;;;;;;;5052687;28;20181;-72
2024/03/22 10:02:45;;;;;;;42.03;23.67;;;;;;;;;;5056031;28;20224;-72
2024/03/22 10:05:11;;;;;;;44.25;24.98;;;;;;;;;;5054133;28;20916;-73
2024/03/22 10:07:37;;;;;;;49.45;24.65;;;;;;;;;;5053805;28;20200;-72
2024/03/22 10:10:03;;;;;;;43.42;23.10;;;;;;;;;;5057195;28;20193;-70
2024/03/22 10:12:29;;;;;;;42.22;23.75;;;;;;;;;;5054623;28;20182;-73
2024/03/22 10:14:54;;;;;;;44.95;24.52;;;;;;;;;;5058934;28;20256;-73
2024/03/22 10:17:20;;;;;;;44.58;24.02;;;;;;;;;;5057658;28;20318;-72
2024/03/22 10:19:47;;;;;;;48.08;25.75;;;;;;;;;;5061807;28;20207;-72
2024/03/22 10:22:16;;;;;;;45.00;26.23;;;;;;;;;;5058702;28;20195;-73
2024/03/22 10:24:42;;;;;;;48.97;27.33;;;;;;;;;;5056948;28;20188;-73
2024/03/22 10:27:08;;;;;;;47.47;26.60;;;;;;;;;;5054202;28;20211;-72
2024/03/22 10:29:35;;;;;;;49.58;26.95;;;;;;;;;;5076527;28;20193;-72
2024/03/22 10:32:01;;;;;;;49.33;25.90;;;;;;;;;;5058101;28;20265;-72
2024/03/22 10:34:28;;;;;;;52.45;27.08;;;;;;;;;;5056252;28;20224;-72
2024/03/22 10:36:55;;;;;;;55.35;27.83;;;;;;;;;;5057992;28;20244;-73
2024/03/22 10:39:22;;;;;;;44.42;25.73;;;;;;;;;;5055147;28;20197;-72
2024/03/22 10:41:48;;;;;;;51.85;27.15;;;;;;;;;;5052103;28;20198;-73
2024/03/22 10:44:15;;;;;;;46.33;25.88;;;;;;;;;;5058269;28;20691;-72
2024/03/22 10:46:45;;;;;;;46.13;26.27;;;;;;;;;;5054268;28;20609;-72
2024/03/22 10:49:16;;;;;;;51.97;26.67;;;;;;;;;;5060029;28;20201;-72
2024/03/22 10:51:46;;;;;;;52.28;26.83;;;;;;;;;;5061084;28;20261;-72
2024/03/22 10:54:17;;;;;;;46.40;24.73;;;;;;;;;;5056666;28;20189;-73
2024/03/22 10:56:43;;;;;;;45.88;25.13;;;;;;;;;;5059427;28;20189;-73
2024/03/22 10:59:08;;;;;;;41.35;23.83;;;;;;;;;;5056870;28;20189;-72
2024/03/22 11:01:36;;;;;;;37.08;22.85;;;;;;;;;;5059602;28;20188;-73
2024/03/22 11:04:12;;;;;;;39.92;22.42;;;;;;;;;;5061171;28;20185;-72
2024/03/22 11:06:37;;;;;;;37.80;22.95;;;;;;;;;;5062898;28;20193;-73
2024/03/22 11:09:07;;;;;;;33.72;19.58;;;;;;;;;;5056778;28;20206;-72
2024/03/22 11:11:37;;;;;;;31.30;17.33;;;;;;;;;;5054373;28;20197;-72
2024/03/22 11:14:05;;;;;;;32.03;17.48;;;;;;;;;;5058181;28;20192;-72
2024/03/22 11:16:31;;;;;;;33.45;19.80;;;;;;;;;;5057382;28;20198;-73
2024/03/22 11:18:56;;;;;;;31.45;17.80;;;;;;;;;;5055103;28;20569;-72
2024/03/22 11:21:22;;;;;;;28.88;17.33;;;;;;;;;;5057221;28;20203;-72
2024/03/22 11:23:47;;;;;;;31.70;16.95;;;;;;;;;;5056995;28;20193;-72
2024/03/22 11:26:13;;;;;;;27.83;16.42;;;;;;;;;;5061985;28;20200;-72
2024/03/22 11:28:42;;;;;;;28.52;16.00;;;;;;;;;;5063229;28;20182;-72
2024/03/22 11:31:08;;;;;;;28.40;15.52;;;;;;;;;;5055213;28;20251;-72
2024/03/22 11:33:33;;;;;;;25.65;15.45;;;;;;;;;;5055740;28;20193;-71
2024/03/22 11:35:59;;;;;;;27.33;15.30;;;;;;;;;;5051506;28;20713;-72
2024/03/22 11:38:27;;;;;;;26.25;15.80;;;;;;;;;;5057496;28;20346;-71
2024/03/22 11:40:53;;;;;;;28.45;15.57;;;;;;;;;;5054320;28;20197;-72
2024/03/22 11:43:18;;;;;;;25.38;14.43;;;;;;;;;;5059558;28;20185;-71
2024/03/22 11:45:44;;;;;;;23.85;14.60;;;;;;;;;;5051606;28;20220;-72
2024/03/22 11:48:10;;;;;;;21.88;13.82;;;;;;;;;;5048159;28;20185;-72
2024/03/22 11:50:37;;;;;;;19.50;13.10;;;;;;;;;;5054589;28;20197;-72
2024/03/22 11:53:05;;;;;;;22.92;14.10;;;;;;;;;;5054566;28;20192;-72
2024/03/22 11:55:31;;;;;;;24.27;14.38;;;;;;;;;;5076281;28;20203;-72
2024/03/22 11:57:57;;;;;;;20.40;12.50;;;;;;;;;;5050765;28;20205;-72
2024/03/22 12:00:25;;;;;;;19.75;12.32;;;;;;;;;;5053415;28;20676;-72
2024/03/22 12:02:50;;;;;;;20.77;12.55;;;;;;;;;;5055161;28;20186;-72
2024/03/22 12:05:17;;;;;;;16.98;10.88;;;;;;;;;;5054027;28;20667;-72
2024/03/22 12:07:44;;;;;;;18.25;11.05;;;;;;;;;;5053863;28;20205;-72
2024/03/22 12:10:10;;;;;;;16.08;11.32;;;;;;;;;;5054117;28;20193;-73
2024/03/22 12:12:36;;;;;;;13.10;9.57;;;;;;;;;;5054190;28;20193;-72
2024/03/22 12:15:02;;;;;;;16.08;10.75;;;;;;;;;;5053230;28;20220;-72
2024/03/22 12:17:27;;;;;;;16.17;10.90;;;;;;;;;;5053872;28;20229;-72
2024/03/22 12:19:53;;;;;;;17.95;11.15;;;;;;;;;;5052208;28;20258;-72
2024/03/22 12:22:19;;;;;;;16.15;10.18;;;;;;;;;;5036795;28;20192;-72
2024/03/22 12:24:44;;;;;;;13.10;9.90;;;;;;;;;;5052385;28;20186;-72
2024/03/22 12:27:10;;;;;;;12.63;9.05;;;;;;;;;;5051222;28;20226;-72
2024/03/22 12:29:35;;;;;;;16.08;10.50;;;;;;;;;;5054851;28;20189;-72
2024/03/22 12:32:03;;;;;;;13.57;9.48;;;;;;;;;;5053588;28;20189;-72
2024/03/22 12:34:29;;;;;;;12.43;8.90;;;;;;;;;;5056215;28;20194;-72
2024/03/22 12:36:55;;;;;;;13.40;9.43;;;;;;;;;;5050277;28;20518;-73
2024/03/22 12:39:20;;;;;;;11.98;8.88;;;;;;;;;;5053262;28;20260;-73
2024/03/22 12:41:46;;;;;;;12.38;8.38;;;;;;;;;;5052920;28;20665;-73
2024/03/22 12:44:11;;;;;;;11.25;8.18;;;;;;;;;;5053494;28;20234;-73
2024/03/22 12:46:37;;;;;;;11.20;8.32;;;;;;;;;;5051727;28;20276;-73
2024/03/22 12:49:02;;;;;;;11.48;8.55;;;;;;;;;;5053589;28;20286;-72
2024/03/22 12:51:28;;;;;;;11.20;8.13;;;;;;;;;;5054454;28;20189;-74
2024/03/22 12:53:53;;;;;;;10.35;8.00;;;;;;;;;;5052037;28;20185;-73
2024/03/22 12:56:20;;;;;;;10.98;8.32;;;;;;;;;;5053308;28;20546;-73
2024/03/22 12:58:45;;;;;;;12.05;8.98;;;;;;;;;;5052535;28;20217;-73
2024/03/22 13:01:11;;;;;;;10.82;8.77;;;;;;;;;;5052463;28;20577;-73
2024/03/22 13:03:37;;;;;;;11.55;8.73;;;;;;;;;;5046296;28;20192;-74
2024/03/22 13:06:03;;;;;;;12.50;9.10;;;;;;;;;;5054912;28;20193;-72
2024/03/22 13:08:29;;;;;;;11.52;8.82;;;;;;;;;;5044003;28;20269;-73
2024/03/22 13:10:54;;;;;;;14.48;9.50;;;;;;;;;;5055500;28;20235;-73
2024/03/22 13:13:19;;;;;;;13.02;9.02;;;;;;;;;;5055908;28;20688;-73
2024/03/22 13:15:46;;;;;;;11.90;9.00;;;;;;;;;;5054653;28;20674;-74
2024/03/22 13:18:12;;;;;;;11.45;9.52;;;;;;;;;;5047703;28;20205;-73
2024/03/22 13:20:38;;;;;;;13.10;8.70;;;;;;;;;;5054830;28;20687;-73
2024/03/22 13:23:04;;;;;;;12.18;8.55;;;;;;;;;;5051657;28;20184;-73
2024/03/22 13:25:30;;;;;;;10.52;8.50;;;;;;;;;;5054359;28;20280;-73
2024/03/22 13:27:55;;;;;;;16.00;8.95;;;;;;;;;;5052927;28;20256;-73
2024/03/22 13:30:21;;;;;;;11.25;8.55;;;;;;;;;;5051030;28;20193;-73
2024/03/22 13:32:47;;;;;;;10.73;8.32;;;;;;;;;;5053787;28;20262;-74
2024/03/22 13:35:13;;;;;;;10.63;8.13;;;;;;;;;;5051217;28;20196;-74
2024/03/22 13:37:40;;;;;;;13.48;8.57;;;;;;;;;;5053824;28;20271;-73
2024/03/22 13:40:06;;;;;;;10.60;8.45;;;;;;;;;;5058250;28;20177;-74
2024/03/22 13:42:32;;;;;;;11.57;7.50;;;;;;;;;;5055453;28;20196;-76
2024/03/22 13:44:57;;;;;;;10.75;7.90;;;;;;;;;;5055850;28;20200;-76
2024/03/22 13:47:23;;;;;;;8.55;6.90;;;;;;;;;;5049389;28;20532;-76
2024/03/22 13:49:49;;;;;;;8.82;6.97;;;;;;;;;;5056110;28;20190;-77
2024/03/22 13:52:14;;;;;;;8.57;6.07;;;;;;;;;;5056867;28;20208;-77
2024/03/22 13:54:40;;;;;;;6.35;5.50;;;;;;;;;;5040375;28;20200;-76
2024/03/22 13:57:05;;;;;;;5.80;4.85;;;;;;;;;;5055281;28;20235;-76
2024/03/22 13:59:31;;;;;;;5.90;4.80;;;;;;;;;;5052364;28;20201;-75
2024/03/22 14:01:56;;;;;;;5.55;4.80;;;;;;;;;;5056376;28;20197;-76
2024/03/22 14:04:23;;;;;;;5.13;4.43;;;;;;;;;;5055102;28;20190;-76
2024/03/22 14:06:48;;;;;;;6.88;4.45;;;;;;;;;;5056921;28;20185;-75
2024/03/22 14:09:15;;;;;;;4.40;3.72;;;;;;;;;;5045533;28;20674;-76
2024/03/22 14:11:42;;;;;;;4.72;3.97;;;;;;;;;;5055460;28;20212;-77